Time;durP1;ratioP1;P1;durP2;ratioP2;P2;SDS_P1;SDS_P2;PMS_P1;PMS_P2;Temp;Humidity;BMP_temperature;BMP_pressure;BME280_temperature;BME280_humidity;BME280_pressure;Samples;Min_cycle;Max_cycle;Signal;HPM_P1;HPM_P2
2023/05/06 00:01:03;;;;;;;3.88;1.55;;;14.40;99.90;;;;;;4990870;28;20038;-71
2023/05/06 00:03:28;;;;;;;3.35;1.80;;;14.30;99.90;;;;;;4977140;28;20023;-71
2023/05/06 00:05:54;;;;;;;3.75;2.00;;;14.30;99.90;;;;;;4989479;28;20035;-71
2023/05/06 00:08:20;;;;;;;3.83;1.05;;;14.30;99.90;;;;;;4977716;28;20085;-71
2023/05/06 00:10:46;;;;;;;2.80;1.35;;;14.30;99.90;;;;;;4989952;28;20031;-72
2023/05/06 00:13:12;;;;;;;4.10;1.38;;;14.30;99.90;;;;;;4975835;28;20035;-72
2023/05/06 00:15:38;;;;;;;5.25;1.92;;;14.30;99.90;;;;;;4989628;28;20533;-71
2023/05/06 00:18:05;;;;;;;3.67;1.55;;;14.40;99.90;;;;;;4977212;28;20038;-71
2023/05/06 00:20:31;;;;;;;2.70;1.40;;;14.50;99.90;;;;;;4993214;28;20085;-71
2023/05/06 00:22:58;;;;;;;4.78;1.45;;;14.50;99.90;;;;;;4979744;28;20051;-71
2023/05/06 00:25:24;;;;;;;4.15;1.60;;;14.50;99.90;;;;;;4993288;28;20054;-71
2023/05/06 00:27:50;;;;;;;2.92;1.67;;;14.50;99.90;;;;;;4980833;28;20070;-71
2023/05/06 00:30:16;;;;;;;5.18;1.98;;;14.60;99.90;;;;;;4994377;28;20034;-72
2023/05/06 00:32:41;;;;;;;7.38;1.48;;;14.60;99.90;;;;;;4979786;28;20395;-72
2023/05/06 00:35:08;;;;;;;2.47;1.60;;;14.60;99.90;;;;;;4978168;28;20394;-71
2023/05/06 00:37:33;;;;;;;6.38;1.60;;;14.70;99.90;;;;;;4983142;28;20061;-71
2023/05/06 00:39:59;;;;;;;1.85;1.20;;;14.70;99.90;;;;;;4992281;28;20065;-71
2023/05/06 00:42:25;;;;;;;3.58;1.25;;;14.70;99.90;;;;;;4984958;28;20039;-71
2023/05/06 00:44:51;;;;;;;2.28;1.35;;;14.70;99.90;;;;;;4988187;28;20030;-71
2023/05/06 00:47:20;;;;;;;3.08;1.50;;;14.60;99.90;;;;;;4986554;28;20047;-71
2023/05/06 00:49:48;;;;;;;2.13;1.38;;;14.60;99.90;;;;;;4987328;28;20041;-72
2023/05/06 00:52:15;;;;;;;1.90;1.20;;;14.60;99.90;;;;;;4975130;28;20042;-71
2023/05/06 00:54:40;;;;;;;1.98;1.27;;;14.50;99.90;;;;;;4985746;28;20080;-71
2023/05/06 00:57:07;;;;;;;4.20;1.63;;;14.50;99.90;;;;;;4988713;28;20109;-71
2023/05/06 00:59:32;;;;;;;3.15;1.30;;;14.40;99.90;;;;;;4984737;28;20038;-71
2023/05/06 01:01:59;;;;;;;3.88;1.83;;;14.30;99.90;;;;;;4992040;28;20073;-71
2023/05/06 01:04:27;;;;;;;5.72;1.65;;;14.10;99.90;;;;;;4974920;28;20019;-71
2023/05/06 01:06:59;;;;;;;3.50;1.73;;;14.00;99.90;;;;;;4964676;28;20360;-70
2023/05/06 01:09:43;;;;;;;3.70;2.15;;;14.00;99.90;;;;;;4968945;28;20167;-71
2023/05/06 01:12:36;;;;;;;2.53;1.73;;;13.90;99.90;;;;;;4970681;28;20062;-71
2023/05/06 01:15:20;;;;;;;4.05;2.30;;;13.80;99.90;;;;;;4990764;28;20050;-70
2023/05/06 01:17:50;;;;;;;3.08;1.98;;;13.80;99.90;;;;;;4978652;28;20094;-71
2023/05/06 01:20:19;;;;;;;2.92;2.05;;;13.80;99.90;;;;;;4992253;28;20084;-72
2023/05/06 01:22:48;;;;;;;13.40;2.15;;;13.90;99.90;;;;;;4979917;28;20035;-72
2023/05/06 01:25:19;;;;;;;3.80;1.83;;;13.90;99.90;;;;;;4986818;28;20038;-72
2023/05/06 01:27:45;;;;;;;3.00;1.65;;;14.00;99.90;;;;;;4978481;28;20067;-72
2023/05/06 01:30:13;;;;;;;4.90;1.67;;;14.00;99.90;;;;;;4991086;28;20022;-72
2023/05/06 01:33:25;;;;;;;5.05;1.40;;;13.90;99.90;;;;;;4979324;28;20495;-72
2023/05/06 01:36:17;;;;;;;3.80;1.83;;;13.70;99.90;;;;;;4943827;28;20096;-72
2023/05/06 01:39:01;;;;;;;3.28;1.90;;;13.60;99.90;;;;;;4979620;28;20080;-72
2023/05/06 01:41:30;;;;;;;2.72;1.73;;;13.50;99.90;;;;;;4981199;28;20164;-72
2023/05/06 01:43:58;;;;;;;4.70;2.15;;;13.50;99.90;;;;;;4975054;28;20037;-72
2023/05/06 01:46:25;;;;;;;5.50;2.72;;;13.50;99.90;;;;;;4991825;28;20035;-72
2023/05/06 01:48:56;;;;;;;3.72;1.85;;;13.40;99.90;;;;;;4978116;28;20034;-72
2023/05/06 01:51:23;;;;;;;18.23;2.75;;;13.40;99.90;;;;;;4991685;28;20114;-72
2023/05/06 01:53:48;;;;;;;3.65;2.63;;;13.40;99.90;;;;;;4977812;28;20045;-72
2023/05/06 01:56:15;;;;;;;5.75;2.13;;;13.40;99.90;;;;;;4992560;28;20033;-72
2023/05/06 01:58:41;;;;;;;4.97;2.15;;;13.30;99.90;;;;;;4979308;28;20089;-72
2023/05/06 02:01:06;;;;;;;3.50;2.15;;;13.30;99.90;;;;;;5007696;28;20030;-71
2023/05/06 02:03:32;;;;;;;5.20;2.25;;;13.20;99.90;;;;;;4993555;28;20065;-71
2023/05/06 02:05:58;;;;;;;5.32;3.13;;;13.10;99.90;;;;;;5007853;28;20062;-71
2023/05/06 02:08:23;;;;;;;4.82;2.33;;;13.10;99.90;;;;;;4978811;28;20484;-71
2023/05/06 02:10:49;;;;;;;5.25;2.53;;;13.10;99.90;;;;;;4991042;28;20034;-72
2023/05/06 02:13:18;;;;;;;4.45;2.50;;;13.00;99.90;;;;;;4977250;28;20030;-72
2023/05/06 02:15:44;;;;;;;4.97;2.67;;;13.10;99.90;;;;;;4988747;28;20057;-72
2023/05/06 02:18:10;;;;;;;5.07;2.50;;;13.20;99.90;;;;;;4977592;28;20026;-72
2023/05/06 02:20:36;;;;;;;4.05;2.42;;;13.10;99.90;;;;;;4990167;28;20398;-71
2023/05/06 02:23:02;;;;;;;8.73;2.33;;;13.20;99.90;;;;;;4983820;28;20049;-71
2023/05/06 02:25:28;;;;;;;4.88;2.33;;;13.10;99.90;;;;;;4992158;28;20026;-72
2023/05/06 02:27:54;;;;;;;10.02;2.63;;;13.20;99.90;;;;;;4978768;28;20487;-72
2023/05/06 02:30:20;;;;;;;9.20;2.03;;;13.20;99.90;;;;;;4992280;28;20030;-72
2023/05/06 02:32:45;;;;;;;2.92;2.05;;;13.20;99.90;;;;;;4977170;28;20042;-72
2023/05/06 02:35:11;;;;;;;7.13;2.35;;;13.10;99.90;;;;;;4991845;28;20474;-72
2023/05/06 02:37:37;;;;;;;3.75;1.88;;;13.00;99.90;;;;;;4979751;28;20039;-71
2023/05/06 02:40:05;;;;;;;4.07;2.30;;;13.00;99.90;;;;;;4991017;28;20382;-72
2023/05/06 02:42:33;;;;;;;4.10;2.55;;;13.00;99.90;;;;;;4991523;23;20039;-74
2023/05/06 02:44:58;;;;;;;4.40;2.67;;;13.10;99.90;;;;;;4986273;28;20363;-75
2023/05/06 02:47:24;;;;;;;5.30;2.70;;;13.00;99.90;;;;;;4981213;28;20037;-75
2023/05/06 02:49:50;;;;;;;4.25;2.60;;;13.00;99.90;;;;;;4991663;28;20033;-74
2023/05/06 02:52:16;;;;;;;6.57;2.35;;;12.90;99.90;;;;;;4981031;28;20073;-74
2023/05/06 02:54:41;;;;;;;5.88;2.38;;;12.90;99.90;;;;;;4991439;28;20026;-75
2023/05/06 02:57:07;;;;;;;5.28;2.47;;;12.80;99.90;;;;;;4981001;28;20125;-74
2023/05/06 02:59:34;;;;;;;4.90;2.35;;;12.80;99.90;;;;;;4991665;28;20121;-75
2023/05/06 03:02:00;;;;;;;4.65;2.70;;;12.80;99.90;;;;;;4978200;28;20047;-74
2023/05/06 03:04:26;;;;;;;4.70;2.47;;;12.70;99.90;;;;;;4949465;28;20841;-74
2023/05/06 03:06:52;;;;;;;5.53;3.28;;;12.70;99.90;;;;;;4957070;28;20494;-74
2023/05/06 03:09:17;;;;;;;7.45;2.83;;;12.70;99.90;;;;;;4991206;28;20386;-74
2023/05/06 03:11:43;;;;;;;4.57;2.70;;;12.70;99.90;;;;;;4966807;28;20050;-74
2023/05/06 03:14:09;;;;;;;4.15;2.33;;;12.80;99.90;;;;;;4989532;28;20050;-74
2023/05/06 03:16:35;;;;;;;4.97;2.70;;;12.80;99.90;;;;;;4968694;28;20041;-74
2023/05/06 03:19:02;;;;;;;4.90;2.45;;;12.70;99.90;;;;;;4988399;28;20438;-74
2023/05/06 03:21:28;;;;;;;5.90;2.88;;;12.70;99.90;;;;;;4969464;28;20459;-74
2023/05/06 03:23:55;;;;;;;6.18;3.05;;;12.70;99.90;;;;;;4989277;28;20030;-74
2023/05/06 03:26:20;;;;;;;6.72;3.10;;;12.70;99.90;;;;;;4985151;28;20126;-74
2023/05/06 03:28:46;;;;;;;5.72;3.70;;;12.60;99.90;;;;;;4985256;28;20455;-74
2023/05/06 03:31:12;;;;;;;6.93;3.40;;;12.50;99.90;;;;;;4988005;28;20038;-74
2023/05/06 03:33:38;;;;;;;3.92;2.67;;;12.50;99.90;;;;;;4981940;28;20050;-74
2023/05/06 03:36:04;;;;;;;4.63;2.53;;;12.50;99.90;;;;;;4990079;28;20482;-74
2023/05/06 03:38:30;;;;;;;4.57;2.75;;;12.40;99.90;;;;;;4985830;28;20029;-75
2023/05/06 03:40:56;;;;;;;5.70;2.78;;;12.50;99.90;;;;;;4991371;28;20056;-73
2023/05/06 03:43:21;;;;;;;7.40;3.03;;;12.50;99.90;;;;;;4979735;28;20026;-73
2023/05/06 03:45:47;;;;;;;5.45;2.42;;;12.50;99.90;;;;;;4991061;28;20113;-76
2023/05/06 03:48:13;;;;;;;5.95;2.20;;;12.50;99.90;;;;;;4980379;28;20113;-75
2023/05/06 03:50:39;;;;;;;6.32;3.35;;;12.50;99.90;;;;;;4990996;28;20042;-74
2023/05/06 03:53:05;;;;;;;4.70;2.67;;;12.50;99.90;;;;;;4979852;28;20030;-74
2023/05/06 03:55:31;;;;;;;5.75;2.90;;;12.50;99.90;;;;;;4993490;28;20026;-74
2023/05/06 03:57:56;;;;;;;4.97;2.80;;;12.40;99.90;;;;;;4982979;28;20124;-74
2023/05/06 04:00:22;;;;;;;5.13;2.90;;;12.20;99.90;;;;;;4995062;28;20415;-74
2023/05/06 04:02:48;;;;;;;5.85;3.03;;;12.00;99.90;;;;;;4983779;28;20926;-74
2023/05/06 04:05:14;;;;;;;10.23;3.75;;;12.00;99.90;;;;;;4994400;28;20041;-74
2023/05/06 04:07:39;;;;;;;3.47;2.15;;;12.10;99.90;;;;;;4984081;28;20034;-74
2023/05/06 04:10:06;;;;;;;7.75;2.63;;;12.20;99.90;;;;;;4994449;28;20030;-74
2023/05/06 04:12:33;;;;;;;5.25;3.10;;;12.30;99.90;;;;;;4969630;28;20035;-74
2023/05/06 04:14:59;;;;;;;9.23;2.95;;;12.30;99.90;;;;;;4970853;28;20125;-74
2023/05/06 04:17:24;;;;;;;6.03;2.83;;;12.40;99.90;;;;;;4974922;28;20254;-73
2023/05/06 04:19:52;;;;;;;7.60;3.05;;;12.40;99.90;;;;;;4994414;28;20054;-75
2023/05/06 04:22:18;;;;;;;6.35;2.72;;;12.40;99.90;;;;;;4983679;28;20026;-75
2023/05/06 04:24:44;;;;;;;5.63;2.83;;;12.30;99.90;;;;;;4992624;28;20022;-75
2023/05/06 04:27:10;;;;;;;5.68;2.78;;;12.40;99.90;;;;;;4981909;28;20133;-75
2023/05/06 04:29:36;;;;;;;4.88;2.60;;;12.40;99.90;;;;;;4993199;28;20038;-75
2023/05/06 04:32:03;;;;;;;4.32;2.80;;;12.40;99.90;;;;;;4983330;28;20038;-75
2023/05/06 04:34:29;;;;;;;6.18;3.35;;;12.30;99.90;;;;;;4993597;28;20073;-75
2023/05/06 04:36:57;;;;;;;4.15;2.35;;;12.30;99.90;;;;;;4983554;28;20035;-75
2023/05/06 04:39:26;;;;;;;6.07;2.92;;;12.40;99.90;;;;;;4994120;28;20026;-75
2023/05/06 04:41:51;;;;;;;4.55;2.78;;;12.40;99.90;;;;;;4983083;28;20062;-75
2023/05/06 04:44:18;;;;;;;4.93;3.00;;;12.50;99.90;;;;;;4993854;28;20060;-75
2023/05/06 04:46:44;;;;;;;5.40;2.70;;;12.40;99.90;;;;;;4983153;28;20503;-75
2023/05/06 04:49:10;;;;;;;5.78;3.38;;;12.10;99.90;;;;;;4992643;28;20057;-75
2023/05/06 04:51:36;;;;;;;5.72;3.67;;;12.20;99.90;;;;;;4984600;28;20043;-75
2023/05/06 04:54:02;;;;;;;5.78;2.92;;;12.30;99.90;;;;;;5007287;28;20512;-75
2023/05/06 04:56:27;;;;;;;6.80;3.10;;;12.40;99.90;;;;;;4986853;28;20027;-75
2023/05/06 04:58:53;;;;;;;5.75;2.90;;;12.40;99.90;;;;;;4989883;28;20482;-75
2023/05/06 05:01:19;;;;;;;7.25;3.53;;;12.50;99.90;;;;;;4989133;28;20054;-75
2023/05/06 05:03:45;;;;;;;6.90;3.33;;;12.60;99.90;;;;;;4987376;28;20104;-75
2023/05/06 05:06:12;;;;;;;6.35;2.83;;;12.50;99.90;;;;;;4991286;28;20478;-75
2023/05/06 05:08:38;;;;;;;5.25;3.22;;;12.70;99.90;;;;;;4984668;28;20153;-75
2023/05/06 05:11:07;;;;;;;7.18;3.33;;;12.80;99.90;;;;;;4983916;28;20033;-75
2023/05/06 05:13:34;;;;;;;7.45;2.92;;;12.80;99.90;;;;;;4984504;28;20495;-75
2023/05/06 05:16:00;;;;;;;9.30;3.47;;;12.90;99.90;;;;;;4978250;28;20023;-75
2023/05/06 05:18:27;;;;;;;6.05;3.53;;;12.80;99.90;;;;;;4981433;28;20037;-75
2023/05/06 05:20:53;;;;;;;5.63;3.13;;;12.80;99.90;;;;;;4993268;28;20486;-75
2023/05/06 05:23:19;;;;;;;5.80;3.22;;;12.90;99.90;;;;;;4980847;28;20125;-75
2023/05/06 05:25:45;;;;;;;7.60;3.33;;;12.90;99.90;;;;;;4992085;28;20030;-75
2023/05/06 05:28:11;;;;;;;6.60;4.00;;;13.00;99.90;;;;;;4981234;28;20030;-74
2023/05/06 05:30:36;;;;;;;6.60;3.85;;;13.00;99.90;;;;;;4993093;28;20048;-74
2023/05/06 05:33:02;;;;;;;5.72;3.10;;;13.00;99.90;;;;;;4981929;28;20053;-74
2023/05/06 05:35:28;;;;;;;8.40;4.55;;;13.10;99.90;;;;;;4993004;28;20304;-74
2023/05/06 05:37:54;;;;;;;9.60;4.47;;;13.20;99.90;;;;;;4982320;28;20030;-74
2023/05/06 05:40:20;;;;;;;7.57;4.68;;;13.30;99.90;;;;;;4993090;28;20109;-74
2023/05/06 05:42:45;;;;;;;13.05;3.83;;;13.40;99.90;;;;;;4980390;28;20061;-74
2023/05/06 05:45:11;;;;;;;14.73;5.25;;;13.40;99.90;;;;;;4992824;28;20034;-74
2023/05/06 05:47:37;;;;;;;27.23;7.53;;;13.50;99.90;;;;;;4982192;28;20042;-74
2023/05/06 05:50:03;;;;;;;26.80;5.57;;;13.50;99.90;;;;;;4992992;28;20022;-74
2023/05/06 05:52:29;;;;;;;8.48;4.57;;;13.40;99.90;;;;;;4981889;28;20065;-73
2023/05/06 05:54:55;;;;;;;7.43;3.85;;;13.50;99.90;;;;;;4992515;28;20065;-73
2023/05/06 05:57:20;;;;;;;6.40;3.50;;;13.60;99.90;;;;;;4980626;28;20030;-73
2023/05/06 05:59:46;;;;;;;8.57;3.83;;;13.60;99.90;;;;;;4992568;28;20026;-75
2023/05/06 06:02:12;;;;;;;8.60;3.80;;;13.60;99.90;;;;;;4974888;28;20113;-73
2023/05/06 06:04:37;;;;;;;6.47;3.50;;;13.60;99.90;;;;;;4992161;28;20450;-73
2023/05/06 06:07:04;;;;;;;11.00;4.28;;;13.70;99.90;;;;;;4981856;28;20041;-75
2023/05/06 06:09:30;;;;;;;11.73;3.78;;;13.70;99.90;;;;;;4991243;28;20472;-75
2023/05/06 06:11:55;;;;;;;9.43;3.90;;;13.90;99.90;;;;;;4972966;28;20114;-75
2023/05/06 06:14:21;;;;;;;11.82;4.25;;;13.80;99.90;;;;;;4992150;28;20113;-75
2023/05/06 06:16:47;;;;;;;14.82;6.05;;;13.90;99.90;;;;;;4979253;28;20184;-76
2023/05/06 06:19:13;;;;;;;6.70;3.70;;;14.10;99.90;;;;;;4974987;28;20402;-75
2023/05/06 06:21:39;;;;;;;24.73;9.18;;;14.10;99.90;;;;;;4992737;28;20030;-76
2023/05/06 06:24:05;;;;;;;12.35;4.43;;;14.30;99.90;;;;;;4974336;28;20512;-71
2023/05/06 06:26:31;;;;;;;8.98;4.72;;;14.40;99.90;;;;;;4991856;28;20524;-76
2023/05/06 06:28:56;;;;;;;6.45;3.63;;;14.40;99.90;;;;;;4975574;28;20033;-76
2023/05/06 06:31:22;;;;;;;9.32;3.90;;;14.50;99.90;;;;;;4983219;28;20049;-76
2023/05/06 06:33:48;;;;;;;8.25;3.45;;;14.60;99.90;;;;;;4969003;28;20038;-74
2023/05/06 06:36:14;;;;;;;7.32;3.92;;;14.70;99.90;;;;;;4992174;28;20031;-75
2023/05/06 06:38:40;;;;;;;6.10;3.35;;;14.70;99.90;;;;;;4975359;28;20034;-74
2023/05/06 06:41:06;;;;;;;9.82;4.00;;;14.70;99.90;;;;;;4977949;28;20410;-75
2023/05/06 06:43:32;;;;;;;14.30;4.35;;;14.90;99.90;;;;;;4985819;28;20026;-75
2023/05/06 06:45:57;;;;;;;5.18;3.17;;;15.10;99.90;;;;;;4990645;28;20445;-75
2023/05/06 06:48:23;;;;;;;6.68;3.80;;;15.10;99.90;;;;;;4975319;28;20034;-76
2023/05/06 06:50:49;;;;;;;6.00;3.17;;;15.30;99.90;;;;;;4990205;28;20030;-76
2023/05/06 06:53:16;;;;;;;9.00;3.47;;;15.20;99.90;;;;;;4975244;28;20027;-76
2023/05/06 06:55:44;;;;;;;7.55;3.60;;;15.30;99.90;;;;;;4991451;28;20482;-76
2023/05/06 06:58:10;;;;;;;6.97;3.22;;;15.30;99.90;;;;;;4974204;28;20546;-76
2023/05/06 07:00:35;;;;;;;7.43;3.22;;;15.40;99.90;;;;;;4991257;28;20109;-76
2023/05/06 07:03:01;;;;;;;6.28;3.03;;;15.60;99.90;;;;;;4981849;28;20371;-76
2023/05/06 07:05:27;;;;;;;9.20;3.20;;;15.70;99.90;;;;;;4991190;28;20046;-74
2023/05/06 07:07:54;;;;;;;7.00;2.88;;;15.80;99.90;;;;;;4985066;28;20073;-75
2023/05/06 07:10:20;;;;;;;7.47;3.42;;;15.90;99.90;;;;;;4997220;28;20333;-68
2023/05/06 07:12:46;;;;;;;7.85;3.35;;;15.50;99.90;;;;;;4969813;28;20449;-77
2023/05/06 07:15:12;;;;;;;5.57;2.42;;;15.90;99.90;;;;;;4989813;28;20038;-76
2023/05/06 07:17:37;;;;;;;4.05;2.85;;;16.00;99.90;;;;;;4983422;28;20125;-76
2023/05/06 07:20:04;;;;;;;7.88;3.00;;;16.20;99.90;;;;;;4989914;28;20030;-76
2023/05/06 07:22:30;;;;;;;8.02;3.28;;;16.10;99.90;;;;;;4984126;28;20038;-74
2023/05/06 07:24:55;;;;;;;9.30;3.05;;;16.40;99.90;;;;;;5006044;28;20042;-74
2023/05/06 07:27:22;;;;;;;12.73;5.78;;;16.40;99.90;;;;;;4983165;28;20041;-74
2023/05/06 07:29:49;;;;;;;10.68;5.20;;;16.50;99.90;;;;;;4990231;28;20030;-76
2023/05/06 07:32:15;;;;;;;5.68;2.65;;;16.30;99.90;;;;;;4994784;28;20489;-74
2023/05/06 07:34:41;;;;;;;5.20;2.80;;;16.50;99.90;;;;;;4989002;28;20034;-74
2023/05/06 07:37:07;;;;;;;4.78;2.83;;;16.70;99.90;;;;;;4984453;28;20052;-80
2023/05/06 07:39:33;;;;;;;9.05;2.60;;;16.70;99.90;;;;;;5005745;28;20027;-82
2023/05/06 07:42:00;;;;;;;5.93;3.80;;;16.80;99.90;;;;;;4983106;28;20042;-81
2023/05/06 07:44:26;;;;;;;7.75;3.67;;;16.80;99.90;;;;;;4991552;28;20517;-81
2023/05/06 07:46:52;;;;;;;8.65;3.10;;;17.10;99.90;;;;;;4989003;28;20253;-80
2023/05/06 07:49:17;;;;;;;5.55;3.25;;;16.90;99.90;;;;;;4989632;28;20034;-79
2023/05/06 07:51:43;;;;;;;6.10;2.80;;;16.60;99.90;;;;;;4984306;28;20510;-80
2023/05/06 07:54:10;;;;;;;7.93;3.83;;;16.80;99.90;;;;;;4989450;28;20034;-82
2023/05/06 07:56:35;;;;;;;12.20;3.75;;;17.00;99.90;;;;;;4986413;28;20057;-81
2023/05/06 07:59:01;;;;;;;5.90;3.22;;;17.30;99.90;;;;;;4989222;28;20478;-81
2023/05/06 08:01:28;;;;;;;8.82;3.92;;;17.30;99.90;;;;;;4984724;28;20039;-81
2023/05/06 08:03:54;;;;;;;5.07;2.97;;;17.30;99.90;;;;;;4986679;28;20034;-81
2023/05/06 08:06:19;;;;;;;3.90;2.00;;;17.60;99.90;;;;;;4988863;28;20117;-81
2023/05/06 08:08:46;;;;;;;3.78;2.42;;;17.60;99.90;;;;;;4969306;28;20033;-81
2023/05/06 08:11:12;;;;;;;5.50;2.53;;;17.30;99.90;;;;;;4982324;28;20034;-81
2023/05/06 08:13:37;;;;;;;4.45;2.40;;;17.30;99.90;;;;;;4983017;28;20041;-81
2023/05/06 08:16:05;;;;;;;5.93;2.45;;;17.40;99.90;;;;;;4989490;28;20034;-81
2023/05/06 08:18:32;;;;;;;3.35;1.70;;;17.70;99.90;;;;;;4984236;28;20446;-82
2023/05/06 08:20:57;;;;;;;4.10;2.00;;;17.70;99.90;;;;;;4991008;28;20041;-80
2023/05/06 08:23:23;;;;;;;5.28;2.05;;;17.80;99.90;;;;;;4982895;28;20034;-81
2023/05/06 08:25:49;;;;;;;4.25;1.88;;;17.90;99.90;;;;;;4989595;28;20042;-81
2023/05/06 08:28:15;;;;;;;5.70;2.30;;;17.60;99.90;;;;;;4983171;28;20030;-81
2023/05/06 08:30:40;;;;;;;6.78;1.75;;;17.70;99.90;;;;;;4990573;28;20038;-80
2023/05/06 08:33:06;;;;;;;4.93;1.65;;;17.70;99.90;;;;;;4970661;28;20092;-80
2023/05/06 08:35:32;;;;;;;6.15;1.77;;;17.70;99.90;;;;;;4989347;28;20478;-81
2023/05/06 08:37:58;;;;;;;4.95;1.85;;;18.00;99.90;;;;;;4984303;28;20073;-81
2023/05/06 08:40:25;;;;;;;7.63;1.80;;;18.10;99.90;;;;;;4989419;28;20450;-80
2023/05/06 08:42:56;;;;;;;5.18;1.20;;;18.40;99.90;;;;;;4994837;23;20035;-78
2023/05/06 08:45:22;;;;;;;3.72;1.58;;;18.50;99.90;;;;;;4959144;28;20062;-78
2023/05/06 08:47:48;;;;;;;2.60;1.38;;;18.50;99.90;;;;;;4950850;28;20583;-78
2023/05/06 08:50:14;;;;;;;2.85;1.25;;;18.50;99.90;;;;;;4988984;28;20114;-78
2023/05/06 08:52:40;;;;;;;3.03;1.27;;;18.60;99.90;;;;;;4967838;28;20039;-78
2023/05/06 08:55:08;;;;;;;2.67;1.50;;;18.90;99.90;;;;;;4972575;28;20015;-78
2023/05/06 08:57:34;;;;;;;2.55;1.20;;;18.90;99.90;;;;;;4964389;28;20040;-78
2023/05/06 09:00:00;;;;;;;1.48;1.00;;;19.00;99.90;;;;;;4972282;28;20031;-78
2023/05/06 09:02:26;;;;;;;3.67;1.67;;;18.80;99.90;;;;;;4960544;28;20043;-78
2023/05/06 09:04:54;;;;;;;2.38;1.40;;;19.10;99.90;;;;;;4955948;28;20031;-78
2023/05/06 09:07:22;;;;;;;2.60;1.08;;;18.90;99.90;;;;;;4969598;28;20034;-79
2023/05/06 09:09:51;;;;;;;9.18;1.88;;;19.40;99.90;;;;;;4956553;28;20042;-78
2023/05/06 09:12:17;;;;;;;2.28;1.40;;;19.20;99.90;;;;;;4955458;28;20462;-79
2023/05/06 09:14:43;;;;;;;3.33;1.50;;;19.40;99.90;;;;;;4972248;28;20037;-79
2023/05/06 09:17:22;;;;;;;2.00;0.90;;;18.90;99.90;;;;;;4972611;28;20486;-79
2023/05/06 09:19:53;;;;;;;2.42;1.00;;;19.00;99.90;;;;;;4969571;28;20046;-70
2023/05/06 09:22:29;;;;;;;6.32;2.75;;;19.30;99.90;;;;;;4971104;28;20023;-75
2023/05/06 09:24:57;;;;;;;2.78;1.17;;;19.60;99.90;;;;;;4970596;28;20121;-78
2023/05/06 09:27:25;;;;;;;2.05;0.90;;;19.60;99.90;;;;;;4968637;28;20058;-77
2023/05/06 09:30:08;;;;;;;0.93;0.63;;;20.00;99.90;;;;;;4970039;28;20041;-78
2023/05/06 09:32:34;;;;;;;1.50;0.90;;;20.20;99.90;;;;;;4957613;28;20097;-79
2023/05/06 09:35:01;;;;;;;1.83;0.55;;;19.70;99.90;;;;;;4954875;28;20019;-79
2023/05/06 09:37:27;;;;;;;2.85;0.88;;;19.80;99.90;;;;;;4967591;28;20110;-79
2023/05/06 09:39:55;;;;;;;2.80;0.90;;;20.00;99.90;;;;;;4971189;28;20158;-79
2023/05/06 09:42:27;;;;;;;0.40;0.40;;;20.10;99.90;;;;;;4968204;28;20035;-79
2023/05/06 09:44:56;;;;;;;2.13;0.98;;;19.60;99.90;;;;;;4971441;28;20693;-79
2023/05/06 09:47:24;;;;;;;3.92;0.82;;;20.00;99.90;;;;;;4968454;28;20031;-79
2023/05/06 09:49:54;;;;;;;1.60;0.70;;;19.60;99.90;;;;;;4963126;28;20035;-78
2023/05/06 09:52:22;;;;;;;1.45;0.60;;;20.00;99.90;;;;;;4967197;28;20026;-77
2023/05/06 09:54:50;;;;;;;1.15;0.70;;;20.50;99.90;;;;;;4969999;28;20035;-77
2023/05/06 09:57:17;;;;;;;1.23;0.38;;;20.90;99.90;;;;;;4970636;28;20050;-83
2023/05/06 09:59:43;;;;;;;1.95;0.73;;;21.10;99.90;;;;;;4937624;28;20163;-79
2023/05/06 10:02:12;;;;;;;3.47;1.70;;;21.60;99.90;;;;;;4961608;28;20027;-81
2023/05/06 10:04:41;;;;;;;1.42;0.95;;;21.50;99.90;;;;;;4971454;28;20039;-83
2023/05/06 10:07:14;;;;;;;2.53;0.63;;;20.90;99.90;;;;;;4958148;28;20109;-77
2023/05/06 10:09:40;;;;;;;1.08;0.60;;;20.90;99.90;;;;;;4965359;28;20047;-83
2023/05/06 10:12:08;;;;;;;0.43;0.20;;;20.50;99.90;;;;;;4955837;28;20042;-78
2023/05/06 10:14:36;;;;;;;4.13;1.08;;;20.70;99.90;;;;;;4963634;28;20030;-76
2023/05/06 10:17:10;;;;;;;1.05;0.60;;;20.70;99.90;;;;;;4971529;28;20027;-79
2023/05/06 10:19:42;;;;;;;1.52;0.80;;;21.40;99.30;;;;;;4962860;28;20035;-79
2023/05/06 10:22:40;;;;;;;0.85;0.40;;;21.40;98.80;;;;;;4933003;29;20095;-81
2023/05/06 10:25:15;;;;;;;3.30;0.60;;;21.40;98.50;;;;;;4972489;28;20037;-78
2023/05/06 10:27:45;;;;;;;1.75;0.50;;;21.20;99.30;;;;;;4968418;28;20046;-78
2023/05/06 10:30:15;;;;;;;0.73;0.50;;;21.60;98.10;;;;;;4959091;28;20026;-79
2023/05/06 10:32:45;;;;;;;0.70;0.40;;;21.80;97.30;;;;;;4956828;28;20031;-81
2023/05/06 10:35:30;;;;;;;2.72;0.65;;;21.50;97.60;;;;;;4939954;28;20503;-77
2023/05/06 10:37:57;;;;;;;1.50;0.70;;;22.10;96.50;;;;;;4964180;28;20030;-75
2023/05/06 10:40:23;;;;;;;1.20;0.60;;;21.80;97.90;;;;;;4954852;28;20089;-74
2023/05/06 10:42:50;;;;;;;1.88;0.55;;;21.90;96.00;;;;;;4961410;28;20062;-72
2023/05/06 10:45:16;;;;;;;1.05;0.55;;;21.80;95.60;;;;;;4956254;28;20534;-76
2023/05/06 10:47:57;;;;;;;0.82;0.38;;;22.20;95.20;;;;;;4971022;28;20130;-78
2023/05/06 10:50:23;;;;;;;;;;;21.60;95.20;;;;;;4966005;28;20038;-80
2023/05/06 10:52:55;;;;;;;0.80;0.47;;;21.80;94.90;;;;;;4971860;28;20016;-77
2023/05/06 10:55:34;;;;;;;0.85;0.47;;;22.10;95.20;;;;;;4906289;28;20384;-76
2023/05/06 10:58:11;;;;;;;1.08;0.47;;;22.00;94.10;;;;;;4969808;28;20066;-75
2023/05/06 11:00:37;;;;;;;1.40;1.02;;;22.20;93.90;;;;;;4969205;28;20391;-76
2023/05/06 11:03:10;;;;;;;1.33;0.40;;;22.40;93.30;;;;;;4961215;28;20050;-78
2023/05/06 11:05:48;;;;;;;0.65;0.30;;;22.30;93.30;;;;;;4969327;28;20035;-77
2023/05/06 11:08:20;;;;;;;1.02;0.50;;;22.30;93.30;;;;;;4972238;28;20031;-77
2023/05/06 11:10:46;;;;;;;3.15;0.60;;;22.30;93.70;;;;;;4966177;28;20050;-79
2023/05/06 11:13:27;;;;;;;3.08;1.48;;;22.70;93.00;;;;;;4969716;28;20125;-79
2023/05/06 11:15:57;;;;;;;2.67;1.05;;;22.60;92.90;;;;;;4969765;28;20387;-79
2023/05/06 11:18:26;;;;;;;0.60;0.23;;;22.70;92.30;;;;;;4970510;28;20026;-84
2023/05/06 11:21:01;;;;;;;1.77;0.68;;;23.10;94.30;;;;;;4967854;28;20299;-74
2023/05/06 11:23:45;;;;;;;4.70;0.80;;;23.50;92.80;;;;;;4971290;28;20041;-72
2023/05/06 11:26:12;;;;;;;1.73;0.32;;;23.50;90.50;;;;;;4969610;28;20137;-77
2023/05/06 11:28:41;;;;;;;0.70;0.35;;;23.40;90.90;;;;;;4971651;28;20054;-79
2023/05/06 11:31:09;;;;;;;0.43;0.20;;;23.00;89.90;;;;;;4967677;28;20023;-77
2023/05/06 11:33:36;;;;;;;0.47;0.20;;;22.70;91.60;;;;;;4965539;28;20035;-78
2023/05/06 11:36:04;;;;;;;0.85;0.40;;;23.00;91.80;;;;;;4968605;28;20029;-78
2023/05/06 11:38:50;;;;;;;0.50;0.35;;;23.00;90.60;;;;;;4967157;28;20031;-78
2023/05/06 11:41:17;;;;;;;0.25;0.20;;;22.40;90.40;;;;;;4967901;28;20565;-79
2023/05/06 11:43:52;;;;;;;5.97;0.75;;;22.50;91.40;;;;;;4969442;28;20043;-78
2023/05/06 11:46:20;;;;;;;0.77;0.40;;;22.30;92.10;;;;;;4968232;28;20105;-78
2023/05/06 11:48:46;;;;;;;2.17;0.47;;;23.00;93.20;;;;;;4970157;28;20398;-79
2023/05/06 11:51:11;;;;;;;1.02;0.57;;;23.10;90.90;;;;;;4967485;28;20027;-78
2023/05/06 11:53:37;;;;;;;0.90;0.68;;;23.80;90.20;;;;;;4970810;28;20038;-78
2023/05/06 11:56:06;;;;;;;0.75;0.43;;;24.10;88.70;;;;;;4966912;28;20066;-79
2023/05/06 11:58:32;;;;;;;1.27;0.80;;;24.80;88.10;;;;;;4969956;28;20027;-78
2023/05/06 12:01:00;;;;;;;1.25;0.45;;;24.30;87.00;;;;;;4967948;28;20038;-78
2023/05/06 12:03:28;;;;;;;0.60;0.32;;;23.90;87.30;;;;;;4958886;28;20471;-79
2023/05/06 12:05:55;;;;;;;0.93;0.75;;;24.80;85.00;;;;;;4951178;28;20063;-79
2023/05/06 12:08:32;;;;;;;0.70;0.40;;;25.10;83.60;;;;;;4969853;28;20027;-79
2023/05/06 12:11:07;;;;;;;0.95;0.40;;;25.10;84.70;;;;;;4963910;28;20118;-79
2023/05/06 12:13:35;;;;;;;0.60;0.30;;;25.50;82.00;;;;;;4969663;28;20034;-79
2023/05/06 12:16:03;;;;;;;1.17;0.52;;;24.70;82.70;;;;;;4970302;28;20439;-78
2023/05/06 12:18:29;;;;;;;2.10;0.47;;;24.40;83.30;;;;;;4973622;28;20107;-79
2023/05/06 12:21:02;;;;;;;1.27;0.50;;;24.90;81.70;;;;;;4970852;28;20162;-79
2023/05/06 12:23:27;;;;;;;3.38;1.05;;;24.20;82.70;;;;;;4974231;28;20572;-79
2023/05/06 12:26:03;;;;;;;1.73;0.55;;;23.80;83.30;;;;;;4971068;28;20039;-79
2023/05/06 12:28:31;;;;;;;1.70;0.60;;;24.00;84.00;;;;;;4970942;28;20479;-79
2023/05/06 12:30:56;;;;;;;0.55;0.45;;;23.20;84.50;;;;;;4955394;28;20039;-79
2023/05/06 12:33:22;;;;;;;2.03;0.50;;;23.50;85.20;;;;;;4951045;28;20446;-79
2023/05/06 12:35:50;;;;;;;1.45;0.40;;;23.90;84.40;;;;;;4971627;28;20410;-79
2023/05/06 12:38:17;;;;;;;1.20;0.60;;;23.50;84.90;;;;;;4974538;28;20237;-79
2023/05/06 12:40:52;;;;;;;3.50;0.60;;;23.60;86.00;;;;;;4954740;28;20027;-78
2023/05/06 12:43:31;;;;;;;1.10;0.40;;;23.40;84.80;;;;;;4974325;28;20057;-79
2023/05/06 12:46:07;;;;;;;0.95;0.40;;;23.60;84.50;;;;;;4971219;28;20031;-79
2023/05/06 12:48:33;;;;;;;0.63;0.40;;;23.20;84.70;;;;;;4972647;28;20502;-79